Southwest Florida International Airport Fort Myers US
ICAO: KRSW
IATA: RSW
Category: Large
Scheduled Services: Yes

Elevation: 30 ft
TransAlt. 18000 ft.

Airport Communications:
FORT MYERS APP/DEP:119.75
ATIS:124.65
CLNC DEL:132.075
GND:121.9
FORT MYERS TWR:128.75
CTAF/UNICOM:122.95

KRSW Zoom In..

If Map Doesn't Load, Click Here

Runways:

(A) RW 06 length 12000 ft width 150 ft
ILS 111.50 / hdg 58

(B) RW 24 length 12000 ft width 150 ft
---- / hdg 238

Location; KRSW
Day. 21 / Time. 15.53 Zulu
* Altimeter: 30.06
* Temperature: 31° c. 87.8°f.
* Wind from: VRB° Speed 04 kn.
Dewpoint: 23° c.
Visibility: 10 Statute Miles.
Clouds: Few 2800 ft.
Clouds: Few 3900 ft.

KRSW 211553Z VRB04KT 10SM FEW028 FEW039 31/23 A3006 RMK AO2 SLP177 T03110228


Wind From VRB°
Speed 04 kn.

 
 
jpsmedia.com for Web Design worldairports.se 2018   terms of use